Chebanse, Illinois
Current Conditions -  °F | °C
As of 11:15 AM on Sunday 23 Nov 2014 (Local Time) from KIKK Reporting Station
Drizzle Drizzle  
Wind Chill: 51°   Ceiling: 1900
Heat Index: 51°   Visibility: 10mi
Dew Point: 47°   Wind: 8mph
Humidity: 86%   Direction: 150°SSE
Pressure: 29.68"   Gusts: NA
Location:  41°N, 87.91°W
Report Text: KIKK 231715Z AUTO 15007KT 10SM -DZ BKN019 BKN025 OVC075 11/08 A2968 RMK AO2 T01060083
Loading
Personal Weather Stations






























Interactive Weather Map New forecast layout! Learn more

10-Day Weather Forecast

Advertisements
Track Severe Weather on mobile